sensor_id;sensor_type;location;lat;lon;timestamp;P1;durP1;ratioP1;P2;durP2;ratioP2
8895;SDS011;4484;48.928;10.066;2022-07-12T00:02:01;1.20;;;1.10;;
8895;SDS011;4484;48.928;10.066;2022-07-12T00:04:28;1.20;;;1.10;;
8895;SDS011;4484;48.928;10.066;2022-07-12T00:06:55;0.83;;;0.83;;
8895;SDS011;4484;48.928;10.066;2022-07-12T00:09:22;0.77;;;0.77;;
8895;SDS011;4484;48.928;10.066;2022-07-12T00:11:49;0.90;;;0.90;;
8895;SDS011;4484;48.928;10.066;2022-07-12T00:14:16;1.23;;;1.03;;
8895;SDS011;4484;48.928;10.066;2022-07-12T00:16:43;1.33;;;1.10;;
8895;SDS011;4484;48.928;10.066;2022-07-12T00:19:10;1.37;;;1.10;;
8895;SDS011;4484;48.928;10.066;2022-07-12T00:21:36;0.80;;;0.80;;
8895;SDS011;4484;48.928;10.066;2022-07-12T00:24:03;1.57;;;0.83;;
8895;SDS011;4484;48.928;10.066;2022-07-12T00:26:30;1.13;;;1.10;;
8895;SDS011;4484;48.928;10.066;2022-07-12T00:28:57;1.10;;;1.00;;
8895;SDS011;4484;48.928;10.066;2022-07-12T00:31:24;0.70;;;0.70;;
8895;SDS011;4484;48.928;10.066;2022-07-12T00:33:51;1.10;;;1.00;;
8895;SDS011;4484;48.928;10.066;2022-07-12T00:36:19;1.37;;;1.27;;
8895;SDS011;4484;48.928;10.066;2022-07-12T00:38:46;1.20;;;1.10;;
8895;SDS011;4484;48.928;10.066;2022-07-12T00:41:13;0.63;;;0.63;;
8895;SDS011;4484;48.928;10.066;2022-07-12T00:43:41;1.00;;;0.90;;
8895;SDS011;4484;48.928;10.066;2022-07-12T00:46:08;1.00;;;0.90;;
8895;SDS011;4484;48.928;10.066;2022-07-12T00:48:36;0.90;;;0.90;;
8895;SDS011;4484;48.928;10.066;2022-07-12T00:51:03;1.03;;;1.00;;
8895;SDS011;4484;48.928;10.066;2022-07-12T00:53:31;1.00;;;0.90;;
8895;SDS011;4484;48.928;10.066;2022-07-12T00:55:58;0.93;;;0.90;;
8895;SDS011;4484;48.928;10.066;2022-07-12T00:58:25;1.00;;;1.00;;
8895;SDS011;4484;48.928;10.066;2022-07-12T01:00:55;0.80;;;0.80;;
8895;SDS011;4484;48.928;10.066;2022-07-12T01:03:23;0.93;;;0.90;;
8895;SDS011;4484;48.928;10.066;2022-07-12T01:05:51;0.83;;;0.83;;
8895;SDS011;4484;48.928;10.066;2022-07-12T01:08:19;1.10;;;1.00;;
8895;SDS011;4484;48.928;10.066;2022-07-12T01:10:50;0.70;;;0.70;;
8895;SDS011;4484;48.928;10.066;2022-07-12T01:13:17;0.70;;;0.70;;
8895;SDS011;4484;48.928;10.066;2022-07-12T01:15:44;1.00;;;0.90;;
8895;SDS011;4484;48.928;10.066;2022-07-12T01:18:13;0.83;;;0.83;;
8895;SDS011;4484;48.928;10.066;2022-07-12T01:20:42;0.93;;;0.90;;
8895;SDS011;4484;48.928;10.066;2022-07-12T01:23:09;0.93;;;0.93;;
8895;SDS011;4484;48.928;10.066;2022-07-12T01:25:37;0.93;;;0.93;;
8895;SDS011;4484;48.928;10.066;2022-07-12T01:28:05;0.80;;;0.80;;
8895;SDS011;4484;48.928;10.066;2022-07-12T01:30:32;0.87;;;0.87;;
8895;SDS011;4484;48.928;10.066;2022-07-12T01:32:59;0.70;;;0.70;;
8895;SDS011;4484;48.928;10.066;2022-07-12T01:35:26;1.03;;;1.00;;
8895;SDS011;4484;48.928;10.066;2022-07-12T01:37:55;0.80;;;0.80;;
8895;SDS011;4484;48.928;10.066;2022-07-12T01:40:23;1.10;;;1.00;;
8895;SDS011;4484;48.928;10.066;2022-07-12T01:42:51;0.70;;;0.70;;
8895;SDS011;4484;48.928;10.066;2022-07-12T01:45:19;1.10;;;1.00;;
8895;SDS011;4484;48.928;10.066;2022-07-12T01:47:46;0.70;;;0.70;;
8895;SDS011;4484;48.928;10.066;2022-07-12T01:50:13;0.77;;;0.77;;
8895;SDS011;4484;48.928;10.066;2022-07-12T01:52:40;0.80;;;0.80;;
8895;SDS011;4484;48.928;10.066;2022-07-12T01:55:08;1.60;;;1.00;;
8895;SDS011;4484;48.928;10.066;2022-07-12T01:57:36;0.70;;;0.70;;
8895;SDS011;4484;48.928;10.066;2022-07-12T02:00:04;0.80;;;0.80;;
8895;SDS011;4484;48.928;10.066;2022-07-12T02:02:32;0.90;;;0.80;;
8895;SDS011;4484;48.928;10.066;2022-07-12T02:04:59;0.90;;;0.80;;
8895;SDS011;4484;48.928;10.066;2022-07-12T02:07:27;1.00;;;0.90;;
8895;SDS011;4484;48.928;10.066;2022-07-12T02:09:54;0.80;;;0.80;;
8895;SDS011;4484;48.928;10.066;2022-07-12T02:12:21;0.80;;;0.80;;
8895;SDS011;4484;48.928;10.066;2022-07-12T02:14:48;0.70;;;0.70;;
8895;SDS011;4484;48.928;10.066;2022-07-12T02:17:16;0.60;;;0.60;;
8895;SDS011;4484;48.928;10.066;2022-07-12T02:19:43;0.90;;;0.90;;
8895;SDS011;4484;48.928;10.066;2022-07-12T02:22:11;0.80;;;0.80;;
8895;SDS011;4484;48.928;10.066;2022-07-12T02:24:37;1.10;;;0.87;;
8895;SDS011;4484;48.928;10.066;2022-07-12T02:27:04;0.80;;;0.80;;
8895;SDS011;4484;48.928;10.066;2022-07-12T02:29:32;0.80;;;0.77;;
8895;SDS011;4484;48.928;10.066;2022-07-12T02:32:00;0.63;;;0.63;;
8895;SDS011;4484;48.928;10.066;2022-07-12T02:34:27;0.60;;;0.60;;
8895;SDS011;4484;48.928;10.066;2022-07-12T02:36:54;0.63;;;0.63;;
8895;SDS011;4484;48.928;10.066;2022-07-12T02:39:21;0.70;;;0.70;;
8895;SDS011;4484;48.928;10.066;2022-07-12T02:41:47;0.50;;;0.50;;
8895;SDS011;4484;48.928;10.066;2022-07-12T02:44:14;0.63;;;0.63;;
8895;SDS011;4484;48.928;10.066;2022-07-12T02:46:41;0.50;;;0.50;;
8895;SDS011;4484;48.928;10.066;2022-07-12T02:49:08;0.57;;;0.53;;
8895;SDS011;4484;48.928;10.066;2022-07-12T02:51:36;0.50;;;0.50;;
8895;SDS011;4484;48.928;10.066;2022-07-12T02:54:03;0.60;;;0.60;;
8895;SDS011;4484;48.928;10.066;2022-07-12T02:56:30;0.60;;;0.60;;
8895;SDS011;4484;48.928;10.066;2022-07-12T02:58:57;0.80;;;0.80;;
8895;SDS011;4484;48.928;10.066;2022-07-12T03:01:23;0.57;;;0.57;;
8895;SDS011;4484;48.928;10.066;2022-07-12T03:03:50;1.47;;;0.70;;
8895;SDS011;4484;48.928;10.066;2022-07-12T03:06:17;1.00;;;0.70;;
8895;SDS011;4484;48.928;10.066;2022-07-12T03:08:44;0.77;;;0.57;;
8895;SDS011;4484;48.928;10.066;2022-07-12T03:11:11;0.50;;;0.50;;
8895;SDS011;4484;48.928;10.066;2022-07-12T03:13:39;0.70;;;0.70;;
8895;SDS011;4484;48.928;10.066;2022-07-12T03:16:06;0.80;;;0.80;;
8895;SDS011;4484;48.928;10.066;2022-07-12T03:18:33;0.80;;;0.80;;
8895;SDS011;4484;48.928;10.066;2022-07-12T03:21:00;0.67;;;0.67;;
8895;SDS011;4484;48.928;10.066;2022-07-12T03:23:27;0.70;;;0.70;;
8895;SDS011;4484;48.928;10.066;2022-07-12T03:25:55;0.60;;;0.60;;
8895;SDS011;4484;48.928;10.066;2022-07-12T03:28:21;1.00;;;0.97;;
8895;SDS011;4484;48.928;10.066;2022-07-12T03:30:49;0.83;;;0.83;;
8895;SDS011;4484;48.928;10.066;2022-07-12T03:33:16;0.73;;;0.73;;
8895;SDS011;4484;48.928;10.066;2022-07-12T03:35:43;1.00;;;0.80;;
8895;SDS011;4484;48.928;10.066;2022-07-12T03:38:10;0.70;;;0.70;;
8895;SDS011;4484;48.928;10.066;2022-07-12T03:40:37;0.70;;;0.70;;
8895;SDS011;4484;48.928;10.066;2022-07-12T03:43:05;1.00;;;0.90;;
8895;SDS011;4484;48.928;10.066;2022-07-12T03:45:31;0.80;;;0.80;;
8895;SDS011;4484;48.928;10.066;2022-07-12T03:47:58;0.90;;;0.90;;
8895;SDS011;4484;48.928;10.066;2022-07-12T03:50:25;0.90;;;0.90;;
8895;SDS011;4484;48.928;10.066;2022-07-12T03:52:52;0.87;;;0.87;;
8895;SDS011;4484;48.928;10.066;2022-07-12T03:55:20;0.70;;;0.70;;
8895;SDS011;4484;48.928;10.066;2022-07-12T03:57:48;0.70;;;0.70;;
8895;SDS011;4484;48.928;10.066;2022-07-12T04:00:15;1.20;;;1.10;;
8895;SDS011;4484;48.928;10.066;2022-07-12T04:02:42;1.30;;;1.20;;
8895;SDS011;4484;48.928;10.066;2022-07-12T04:05:10;1.60;;;1.47;;
8895;SDS011;4484;48.928;10.066;2022-07-12T04:07:37;2.93;;;2.63;;
8895;SDS011;4484;48.928;10.066;2022-07-12T04:10:05;3.03;;;2.40;;
8895;SDS011;4484;48.928;10.066;2022-07-12T04:12:33;2.33;;;2.13;;
8895;SDS011;4484;48.928;10.066;2022-07-12T04:15:00;3.30;;;2.60;;
8895;SDS011;4484;48.928;10.066;2022-07-12T04:17:29;3.60;;;2.57;;
8895;SDS011;4484;48.928;10.066;2022-07-12T04:19:55;3.23;;;2.60;;
8895;SDS011;4484;48.928;10.066;2022-07-12T04:22:22;2.40;;;2.07;;
8895;SDS011;4484;48.928;10.066;2022-07-12T04:24:49;2.70;;;2.40;;
8895;SDS011;4484;48.928;10.066;2022-07-12T04:27:16;2.30;;;2.10;;
8895;SDS011;4484;48.928;10.066;2022-07-12T04:29:43;2.20;;;1.93;;
8895;SDS011;4484;48.928;10.066;2022-07-12T04:32:10;1.63;;;1.53;;
8895;SDS011;4484;48.928;10.066;2022-07-12T04:34:37;1.80;;;1.60;;
8895;SDS011;4484;48.928;10.066;2022-07-12T04:37:05;1.60;;;1.50;;
8895;SDS011;4484;48.928;10.066;2022-07-12T04:39:31;2.73;;;1.60;;
8895;SDS011;4484;48.928;10.066;2022-07-12T04:41:58;1.40;;;1.30;;
8895;SDS011;4484;48.928;10.066;2022-07-12T04:44:25;1.43;;;1.33;;
8895;SDS011;4484;48.928;10.066;2022-07-12T04:46:52;2.03;;;1.40;;
8895;SDS011;4484;48.928;10.066;2022-07-12T04:49:19;1.40;;;1.23;;
8895;SDS011;4484;48.928;10.066;2022-07-12T04:51:46;1.20;;;1.10;;
8895;SDS011;4484;48.928;10.066;2022-07-12T04:54:13;1.33;;;1.23;;
8895;SDS011;4484;48.928;10.066;2022-07-12T04:56:41;1.67;;;1.50;;
8895;SDS011;4484;48.928;10.066;2022-07-12T04:59:07;1.70;;;1.60;;
8895;SDS011;4484;48.928;10.066;2022-07-12T05:01:34;1.60;;;1.50;;
8895;SDS011;4484;48.928;10.066;2022-07-12T05:04:01;1.60;;;1.50;;
8895;SDS011;4484;48.928;10.066;2022-07-12T05:06:28;1.50;;;1.40;;
8895;SDS011;4484;48.928;10.066;2022-07-12T05:08:55;1.57;;;1.40;;
8895;SDS011;4484;48.928;10.066;2022-07-12T05:11:22;1.27;;;1.17;;
8895;SDS011;4484;48.928;10.066;2022-07-12T05:13:48;1.40;;;1.30;;
8895;SDS011;4484;48.928;10.066;2022-07-12T05:16:15;1.57;;;1.47;;
8895;SDS011;4484;48.928;10.066;2022-07-12T05:18:42;1.80;;;1.70;;
8895;SDS011;4484;48.928;10.066;2022-07-12T05:21:09;1.93;;;1.70;;
8895;SDS011;4484;48.928;10.066;2022-07-12T05:23:37;2.10;;;1.90;;
8895;SDS011;4484;48.928;10.066;2022-07-12T05:26:05;2.00;;;1.80;;
8895;SDS011;4484;48.928;10.066;2022-07-12T05:28:32;2.60;;;2.00;;
8895;SDS011;4484;48.928;10.066;2022-07-12T05:30:58;1.90;;;1.80;;
8895;SDS011;4484;48.928;10.066;2022-07-12T05:33:25;1.50;;;1.40;;
8895;SDS011;4484;48.928;10.066;2022-07-12T05:35:52;1.60;;;1.50;;
8895;SDS011;4484;48.928;10.066;2022-07-12T05:38:19;1.57;;;1.47;;
8895;SDS011;4484;48.928;10.066;2022-07-12T05:40:46;2.23;;;1.70;;
8895;SDS011;4484;48.928;10.066;2022-07-12T05:43:14;2.73;;;2.10;;
8895;SDS011;4484;48.928;10.066;2022-07-12T05:45:42;1.80;;;1.70;;
8895;SDS011;4484;48.928;10.066;2022-07-12T05:48:09;1.90;;;1.80;;
8895;SDS011;4484;48.928;10.066;2022-07-12T05:50:36;1.93;;;1.67;;
8895;SDS011;4484;48.928;10.066;2022-07-12T05:53:03;2.87;;;1.50;;
8895;SDS011;4484;48.928;10.066;2022-07-12T05:55:51;1.80;;;1.60;;
8895;SDS011;4484;48.928;10.066;2022-07-12T05:58:20;1.60;;;1.50;;
8895;SDS011;4484;48.928;10.066;2022-07-12T06:00:47;1.30;;;1.20;;
8895;SDS011;4484;48.928;10.066;2022-07-12T06:03:14;1.30;;;1.20;;
8895;SDS011;4484;48.928;10.066;2022-07-12T06:05:42;1.40;;;1.27;;
8895;SDS011;4484;48.928;10.066;2022-07-12T06:08:09;0.97;;;0.97;;
8895;SDS011;4484;48.928;10.066;2022-07-12T06:10:36;1.20;;;1.10;;
8895;SDS011;4484;48.928;10.066;2022-07-12T06:13:03;0.87;;;0.87;;
8895;SDS011;4484;48.928;10.066;2022-07-12T06:15:30;1.17;;;0.97;;
8895;SDS011;4484;48.928;10.066;2022-07-12T06:17:59;0.70;;;0.70;;
8895;SDS011;4484;48.928;10.066;2022-07-12T06:20:26;0.70;;;0.70;;
8895;SDS011;4484;48.928;10.066;2022-07-12T06:22:53;1.83;;;0.67;;
8895;SDS011;4484;48.928;10.066;2022-07-12T06:25:21;1.40;;;0.90;;
8895;SDS011;4484;48.928;10.066;2022-07-12T06:28:08;1.03;;;0.73;;
8895;SDS011;4484;48.928;10.066;2022-07-12T06:30:35;2.10;;;0.63;;
8895;SDS011;4484;48.928;10.066;2022-07-12T06:33:02;0.70;;;0.70;;
8895;SDS011;4484;48.928;10.066;2022-07-12T06:35:29;2.93;;;0.63;;
8895;SDS011;4484;48.928;10.066;2022-07-12T06:37:56;0.40;;;0.40;;
8895;SDS011;4484;48.928;10.066;2022-07-12T06:40:23;0.70;;;0.43;;
8895;SDS011;4484;48.928;10.066;2022-07-12T06:42:49;0.60;;;0.50;;
8895;SDS011;4484;48.928;10.066;2022-07-12T06:45:18;0.50;;;0.50;;
8895;SDS011;4484;48.928;10.066;2022-07-12T06:47:45;0.97;;;0.53;;
8895;SDS011;4484;48.928;10.066;2022-07-12T06:50:12;0.47;;;0.47;;
8895;SDS011;4484;48.928;10.066;2022-07-12T06:52:39;1.10;;;0.70;;
8895;SDS011;4484;48.928;10.066;2022-07-12T06:55:07;0.40;;;0.40;;
8895;SDS011;4484;48.928;10.066;2022-07-12T06:57:34;0.70;;;0.60;;
8895;SDS011;4484;48.928;10.066;2022-07-12T07:00:01;0.83;;;0.53;;
8895;SDS011;4484;48.928;10.066;2022-07-12T07:02:31;0.60;;;0.53;;
8895;SDS011;4484;48.928;10.066;2022-07-12T07:04:58;1.53;;;0.40;;
8895;SDS011;4484;48.928;10.066;2022-07-12T07:07:25;1.33;;;0.50;;
8895;SDS011;4484;48.928;10.066;2022-07-12T07:09:52;0.43;;;0.40;;
8895;SDS011;4484;48.928;10.066;2022-07-12T07:12:18;0.50;;;0.50;;
8895;SDS011;4484;48.928;10.066;2022-07-12T07:14:45;0.40;;;0.40;;
8895;SDS011;4484;48.928;10.066;2022-07-12T07:17:14;3.10;;;0.60;;
8895;SDS011;4484;48.928;10.066;2022-07-12T07:19:43;0.50;;;0.50;;
8895;SDS011;4484;48.928;10.066;2022-07-12T07:22:10;0.50;;;0.50;;
8895;SDS011;4484;48.928;10.066;2022-07-12T07:24:38;0.40;;;0.40;;
8895;SDS011;4484;48.928;10.066;2022-07-12T07:27:05;0.55;;;0.50;;
8895;SDS011;4484;48.928;10.066;2022-07-12T07:29:32;0.65;;;0.50;;
8895;SDS011;4484;48.928;10.066;2022-07-12T07:32:18;0.50;;;0.50;;
8895;SDS011;4484;48.928;10.066;2022-07-12T07:34:45;1.08;;;0.47;;
8895;SDS011;4484;48.928;10.066;2022-07-12T07:37:12;0.50;;;0.50;;
8895;SDS011;4484;48.928;10.066;2022-07-12T07:39:39;0.50;;;0.50;;
8895;SDS011;4484;48.928;10.066;2022-07-12T07:42:06;0.68;;;0.50;;
8895;SDS011;4484;48.928;10.066;2022-07-12T07:44:33;0.75;;;0.40;;
8895;SDS011;4484;48.928;10.066;2022-07-12T07:47:12;0.35;;;0.30;;
8895;SDS011;4484;48.928;10.066;2022-07-12T07:49:39;0.45;;;0.32;;
8895;SDS011;4484;48.928;10.066;2022-07-12T07:52:11;0.30;;;0.30;;
8895;SDS011;4484;48.928;10.066;2022-07-12T07:54:37;0.47;;;0.30;;
8895;SDS011;4484;48.928;10.066;2022-07-12T07:57:04;2.50;;;0.32;;
8895;SDS011;4484;48.928;10.066;2022-07-12T07:59:31;0.30;;;0.30;;
8895;SDS011;4484;48.928;10.066;2022-07-12T08:01:58;0.45;;;0.22;;
8895;SDS011;4484;48.928;10.066;2022-07-12T08:04:25;0.73;;;0.40;;
8895;SDS011;4484;48.928;10.066;2022-07-12T08:06:52;0.40;;;0.40;;
8895;SDS011;4484;48.928;10.066;2022-07-12T08:09:19;0.30;;;0.30;;
8895;SDS011;4484;48.928;10.066;2022-07-12T08:11:45;0.22;;;0.20;;
8895;SDS011;4484;48.928;10.066;2022-07-12T08:14:12;0.22;;;0.22;;
8895;SDS011;4484;48.928;10.066;2022-07-12T08:16:39;0.43;;;0.35;;
8895;SDS011;4484;48.928;10.066;2022-07-12T08:19:07;0.98;;;0.30;;
8895;SDS011;4484;48.928;10.066;2022-07-12T08:21:34;0.30;;;0.30;;
8895;SDS011;4484;48.928;10.066;2022-07-12T08:24:01;0.30;;;0.30;;
8895;SDS011;4484;48.928;10.066;2022-07-12T08:26:28;0.30;;;0.20;;
8895;SDS011;4484;48.928;10.066;2022-07-12T08:28:55;0.30;;;0.30;;
8895;SDS011;4484;48.928;10.066;2022-07-12T08:31:22;0.75;;;0.40;;
8895;SDS011;4484;48.928;10.066;2022-07-12T08:33:48;0.30;;;0.28;;
8895;SDS011;4484;48.928;10.066;2022-07-12T08:36:16;0.30;;;0.30;;
8895;SDS011;4484;48.928;10.066;2022-07-12T08:38:43;0.52;;;0.20;;
8895;SDS011;4484;48.928;10.066;2022-07-12T08:41:11;0.40;;;0.30;;
8895;SDS011;4484;48.928;10.066;2022-07-12T08:43:39;0.38;;;0.30;;
8895;SDS011;4484;48.928;10.066;2022-07-12T08:46:08;0.30;;;0.30;;
8895;SDS011;4484;48.928;10.066;2022-07-12T08:48:37;0.20;;;0.20;;
8895;SDS011;4484;48.928;10.066;2022-07-12T08:51:07;0.30;;;0.30;;
8895;SDS011;4484;48.928;10.066;2022-07-12T08:53:37;0.40;;;0.40;;
8895;SDS011;4484;48.928;10.066;2022-07-12T08:56:05;0.52;;;0.40;;
8895;SDS011;4484;48.928;10.066;2022-07-12T08:58:33;0.40;;;0.40;;
8895;SDS011;4484;48.928;10.066;2022-07-12T09:00:59;0.30;;;0.30;;
8895;SDS011;4484;48.928;10.066;2022-07-12T09:03:27;0.30;;;0.30;;
8895;SDS011;4484;48.928;10.066;2022-07-12T09:05:55;1.55;;;0.30;;
8895;SDS011;4484;48.928;10.066;2022-07-12T09:08:24;0.20;;;0.20;;
8895;SDS011;4484;48.928;10.066;2022-07-12T09:10:53;0.75;;;0.30;;
8895;SDS011;4484;48.928;10.066;2022-07-12T09:16:25;0.47;;;0.30;;
8895;SDS011;4484;48.928;10.066;2022-07-12T09:21:47;0.50;;;0.40;;
8895;SDS011;4484;48.928;10.066;2022-07-12T09:24:17;0.40;;;0.40;;
8895;SDS011;4484;48.928;10.066;2022-07-12T09:26:45;0.57;;;0.30;;
8895;SDS011;4484;48.928;10.066;2022-07-12T09:29:13;0.30;;;0.30;;
8895;SDS011;4484;48.928;10.066;2022-07-12T09:31:44;0.43;;;0.30;;
8895;SDS011;4484;48.928;10.066;2022-07-12T09:34:32;1.73;;;0.30;;
8895;SDS011;4484;48.928;10.066;2022-07-12T09:37:18;0.52;;;0.40;;
8895;SDS011;4484;48.928;10.066;2022-07-12T09:39:50;0.95;;;0.35;;
8895;SDS011;4484;48.928;10.066;2022-07-12T09:42:20;0.40;;;0.40;;
8895;SDS011;4484;48.928;10.066;2022-07-12T09:44:53;1.48;;;0.40;;
8895;SDS011;4484;48.928;10.066;2022-07-12T09:47:23;0.30;;;0.30;;
8895;SDS011;4484;48.928;10.066;2022-07-12T09:49:51;0.68;;;0.28;;
8895;SDS011;4484;48.928;10.066;2022-07-12T09:54:49;0.30;;;0.30;;
8895;SDS011;4484;48.928;10.066;2022-07-12T09:59:57;0.50;;;0.40;;
8895;SDS011;4484;48.928;10.066;2022-07-12T10:02:24;0.52;;;0.40;;
8895;SDS011;4484;48.928;10.066;2022-07-12T10:04:52;0.40;;;0.30;;
8895;SDS011;4484;48.928;10.066;2022-07-12T10:07:20;0.25;;;0.25;;
8895;SDS011;4484;48.928;10.066;2022-07-12T10:09:48;0.60;;;0.30;;
8895;SDS011;4484;48.928;10.066;2022-07-12T10:12:20;0.75;;;0.38;;
8895;SDS011;4484;48.928;10.066;2022-07-12T10:14:50;0.63;;;0.40;;
8895;SDS011;4484;48.928;10.066;2022-07-12T10:17:22;0.45;;;0.30;;
8895;SDS011;4484;48.928;10.066;2022-07-12T10:20:01;0.30;;;0.30;;
8895;SDS011;4484;48.928;10.066;2022-07-12T10:22:43;0.40;;;0.40;;
8895;SDS011;4484;48.928;10.066;2022-07-12T10:27:52;0.38;;;0.30;;
8895;SDS011;4484;48.928;10.066;2022-07-12T10:30:21;0.30;;;0.30;;
8895;SDS011;4484;48.928;10.066;2022-07-12T10:32:50;0.35;;;0.30;;
8895;SDS011;4484;48.928;10.066;2022-07-12T10:35:24;0.40;;;0.40;;
8895;SDS011;4484;48.928;10.066;2022-07-12T10:40:44;0.40;;;0.40;;
8895;SDS011;4484;48.928;10.066;2022-07-12T10:43:13;0.40;;;0.40;;
8895;SDS011;4484;48.928;10.066;2022-07-12T10:45:42;1.27;;;0.55;;
8895;SDS011;4484;48.928;10.066;2022-07-12T10:58:43;0.52;;;0.45;;
8895;SDS011;4484;48.928;10.066;2022-07-12T11:01:34;0.85;;;0.50;;
8895;SDS011;4484;48.928;10.066;2022-07-12T11:04:08;0.45;;;0.40;;
8895;SDS011;4484;48.928;10.066;2022-07-12T11:06:40;0.50;;;0.50;;
8895;SDS011;4484;48.928;10.066;2022-07-12T11:09:08;0.57;;;0.40;;
8895;SDS011;4484;48.928;10.066;2022-07-12T11:11:46;0.55;;;0.50;;
8895;SDS011;4484;48.928;10.066;2022-07-12T11:14:24;0.30;;;0.30;;
8895;SDS011;4484;48.928;10.066;2022-07-12T11:16:58;0.60;;;0.40;;
8895;SDS011;4484;48.928;10.066;2022-07-12T11:19:27;0.40;;;0.40;;
8895;SDS011;4484;48.928;10.066;2022-07-12T11:21:55;1.45;;;0.50;;
8895;SDS011;4484;48.928;10.066;2022-07-12T11:24:25;1.48;;;0.40;;
8895;SDS011;4484;48.928;10.066;2022-07-12T11:26:57;1.17;;;0.47;;
8895;SDS011;4484;48.928;10.066;2022-07-12T11:29:28;1.38;;;0.52;;
8895;SDS011;4484;48.928;10.066;2022-07-12T11:32:01;0.45;;;0.43;;
8895;SDS011;4484;48.928;10.066;2022-07-12T11:34:37;0.40;;;0.40;;
8895;SDS011;4484;48.928;10.066;2022-07-12T11:37:04;0.60;;;0.50;;
8895;SDS011;4484;48.928;10.066;2022-07-12T11:39:35;1.00;;;0.50;;
8895;SDS011;4484;48.928;10.066;2022-07-12T11:42:04;0.30;;;0.30;;
8895;SDS011;4484;48.928;10.066;2022-07-12T11:44:51;0.68;;;0.45;;
8895;SDS011;4484;48.928;10.066;2022-07-12T11:47:18;0.40;;;0.40;;
8895;SDS011;4484;48.928;10.066;2022-07-12T11:49:54;3.88;;;0.68;;
8895;SDS011;4484;48.928;10.066;2022-07-12T11:52:22;0.40;;;0.40;;
8895;SDS011;4484;48.928;10.066;2022-07-12T11:54:52;0.38;;;0.38;;
8895;SDS011;4484;48.928;10.066;2022-07-12T11:57:20;0.52;;;0.50;;
8895;SDS011;4484;48.928;10.066;2022-07-12T11:59:49;0.90;;;0.60;;
8895;SDS011;4484;48.928;10.066;2022-07-12T12:02:16;0.40;;;0.40;;
8895;SDS011;4484;48.928;10.066;2022-07-12T12:04:48;0.40;;;0.40;;
8895;SDS011;4484;48.928;10.066;2022-07-12T12:07:17;1.17;;;0.47;;
8895;SDS011;4484;48.928;10.066;2022-07-12T12:12:25;0.40;;;0.40;;
8895;SDS011;4484;48.928;10.066;2022-07-12T12:14:52;0.55;;;0.50;;
8895;SDS011;4484;48.928;10.066;2022-07-12T12:17:19;0.57;;;0.30;;
8895;SDS011;4484;48.928;10.066;2022-07-12T12:19:46;0.40;;;0.40;;
8895;SDS011;4484;48.928;10.066;2022-07-12T12:22:47;0.50;;;0.50;;
8895;SDS011;4484;48.928;10.066;2022-07-12T12:25:06;0.57;;;0.40;;
8895;SDS011;4484;48.928;10.066;2022-07-12T12:30:47;0.50;;;0.50;;
8895;SDS011;4484;48.928;10.066;2022-07-12T12:33:32;0.68;;;0.45;;
8895;SDS011;4484;48.928;10.066;2022-07-12T12:36:13;0.40;;;0.40;;
8895;SDS011;4484;48.928;10.066;2022-07-12T12:38:48;0.43;;;0.43;;
8895;SDS011;4484;48.928;10.066;2022-07-12T12:41:17;0.82;;;0.50;;
8895;SDS011;4484;48.928;10.066;2022-07-12T12:49:51;0.50;;;0.47;;
8895;SDS011;4484;48.928;10.066;2022-07-12T12:52:24;0.50;;;0.50;;
8895;SDS011;4484;48.928;10.066;2022-07-12T12:54:51;1.63;;;0.50;;
8895;SDS011;4484;48.928;10.066;2022-07-12T12:57:19;1.35;;;0.40;;
8895;SDS011;4484;48.928;10.066;2022-07-12T12:59:47;1.10;;;0.40;;
8895;SDS011;4484;48.928;10.066;2022-07-12T13:02:14;0.60;;;0.50;;
8895;SDS011;4484;48.928;10.066;2022-07-12T13:04:42;0.82;;;0.45;;
8895;SDS011;4484;48.928;10.066;2022-07-12T13:07:09;0.43;;;0.43;;
8895;SDS011;4484;48.928;10.066;2022-07-12T13:09:39;0.32;;;0.32;;
8895;SDS011;4484;48.928;10.066;2022-07-12T13:12:06;0.50;;;0.50;;
8895;SDS011;4484;48.928;10.066;2022-07-12T13:14:34;0.40;;;0.40;;
8895;SDS011;4484;48.928;10.066;2022-07-12T13:17:01;0.47;;;0.40;;
8895;SDS011;4484;48.928;10.066;2022-07-12T13:19:29;1.58;;;0.50;;
8895;SDS011;4484;48.928;10.066;2022-07-12T13:21:57;0.70;;;0.30;;
8895;SDS011;4484;48.928;10.066;2022-07-12T13:24:24;0.38;;;0.38;;
8895;SDS011;4484;48.928;10.066;2022-07-12T13:26:51;0.57;;;0.40;;
8895;SDS011;4484;48.928;10.066;2022-07-12T13:29:18;0.40;;;0.40;;
8895;SDS011;4484;48.928;10.066;2022-07-12T13:31:44;0.40;;;0.40;;
8895;SDS011;4484;48.928;10.066;2022-07-12T13:34:19;0.73;;;0.50;;
8895;SDS011;4484;48.928;10.066;2022-07-12T13:36:45;0.40;;;0.40;;
8895;SDS011;4484;48.928;10.066;2022-07-12T13:39:12;1.20;;;0.38;;
8895;SDS011;4484;48.928;10.066;2022-07-12T13:41:58;0.50;;;0.50;;
8895;SDS011;4484;48.928;10.066;2022-07-12T13:44:24;0.47;;;0.45;;
8895;SDS011;4484;48.928;10.066;2022-07-12T13:46:51;0.85;;;0.40;;
8895;SDS011;4484;48.928;10.066;2022-07-12T13:49:18;0.35;;;0.35;;
8895;SDS011;4484;48.928;10.066;2022-07-12T13:51:45;0.90;;;0.40;;
8895;SDS011;4484;48.928;10.066;2022-07-12T13:54:12;0.60;;;0.40;;
8895;SDS011;4484;48.928;10.066;2022-07-12T13:56:39;1.58;;;0.40;;
8895;SDS011;4484;48.928;10.066;2022-07-12T13:59:06;0.45;;;0.43;;
8895;SDS011;4484;48.928;10.066;2022-07-12T14:01:34;0.70;;;0.60;;
8895;SDS011;4484;48.928;10.066;2022-07-12T14:04:01;0.75;;;0.60;;
8895;SDS011;4484;48.928;10.066;2022-07-12T14:06:28;0.35;;;0.35;;
8895;SDS011;4484;48.928;10.066;2022-07-12T14:08:56;0.40;;;0.40;;
8895;SDS011;4484;48.928;10.066;2022-07-12T14:11:23;1.02;;;0.40;;
8895;SDS011;4484;48.928;10.066;2022-07-12T14:13:51;0.40;;;0.40;;
8895;SDS011;4484;48.928;10.066;2022-07-12T14:16:18;0.55;;;0.43;;
8895;SDS011;4484;48.928;10.066;2022-07-12T14:18:45;0.57;;;0.43;;
8895;SDS011;4484;48.928;10.066;2022-07-12T14:21:12;0.32;;;0.32;;
8895;SDS011;4484;48.928;10.066;2022-07-12T14:23:39;0.93;;;0.45;;
8895;SDS011;4484;48.928;10.066;2022-07-12T14:26:07;0.50;;;0.50;;
8895;SDS011;4484;48.928;10.066;2022-07-12T14:28:34;0.50;;;0.50;;
8895;SDS011;4484;48.928;10.066;2022-07-12T14:31:02;0.50;;;0.50;;
8895;SDS011;4484;48.928;10.066;2022-07-12T14:33:31;0.50;;;0.50;;
8895;SDS011;4484;48.928;10.066;2022-07-12T14:35:58;0.55;;;0.55;;
8895;SDS011;4484;48.928;10.066;2022-07-12T14:38:25;0.80;;;0.80;;
8895;SDS011;4484;48.928;10.066;2022-07-12T14:40:57;1.50;;;1.40;;
8895;SDS011;4484;48.928;10.066;2022-07-12T14:43:25;1.45;;;1.25;;
8895;SDS011;4484;48.928;10.066;2022-07-12T14:45:52;0.60;;;0.60;;
8895;SDS011;4484;48.928;10.066;2022-07-12T14:48:19;0.93;;;0.43;;
8895;SDS011;4484;48.928;10.066;2022-07-12T14:50:46;0.50;;;0.50;;
8895;SDS011;4484;48.928;10.066;2022-07-12T14:53:19;1.10;;;1.00;;
8895;SDS011;4484;48.928;10.066;2022-07-12T14:55:46;0.47;;;0.47;;
8895;SDS011;4484;48.928;10.066;2022-07-12T14:58:14;0.40;;;0.40;;
8895;SDS011;4484;48.928;10.066;2022-07-12T15:00:41;0.70;;;0.50;;
8895;SDS011;4484;48.928;10.066;2022-07-12T15:03:08;0.50;;;0.50;;
8895;SDS011;4484;48.928;10.066;2022-07-12T15:05:36;1.85;;;0.50;;
8895;SDS011;4484;48.928;10.066;2022-07-12T15:08:03;0.90;;;0.50;;
8895;SDS011;4484;48.928;10.066;2022-07-12T15:10:30;0.47;;;0.47;;
8895;SDS011;4484;48.928;10.066;2022-07-12T15:12:57;0.52;;;0.50;;
8895;SDS011;4484;48.928;10.066;2022-07-12T15:15:25;0.63;;;0.60;;
8895;SDS011;4484;48.928;10.066;2022-07-12T15:17:52;1.15;;;0.60;;
8895;SDS011;4484;48.928;10.066;2022-07-12T15:20:20;0.60;;;0.57;;
8895;SDS011;4484;48.928;10.066;2022-07-12T15:22:47;1.35;;;0.68;;
8895;SDS011;4484;48.928;10.066;2022-07-12T15:25:15;0.73;;;0.60;;
8895;SDS011;4484;48.928;10.066;2022-07-12T15:27:41;1.08;;;0.50;;
8895;SDS011;4484;48.928;10.066;2022-07-12T15:30:09;0.45;;;0.45;;
8895;SDS011;4484;48.928;10.066;2022-07-12T15:32:36;1.50;;;0.60;;
8895;SDS011;4484;48.928;10.066;2022-07-12T15:35:06;2.85;;;0.82;;
8895;SDS011;4484;48.928;10.066;2022-07-12T15:37:33;2.50;;;0.63;;
8895;SDS011;4484;48.928;10.066;2022-07-12T15:40:00;3.17;;;0.60;;
8895;SDS011;4484;48.928;10.066;2022-07-12T15:42:27;1.65;;;0.60;;
8895;SDS011;4484;48.928;10.066;2022-07-12T15:44:55;2.88;;;0.75;;
8895;SDS011;4484;48.928;10.066;2022-07-12T15:47:21;1.65;;;0.50;;